sensor_id;sensor_type;location;lat;lon;timestamp;pressure;altitude;pressure_sealevel;temperature;humidity
3082;BME280;1551;51.046;7.010;2024-01-30T00:00:36;102097.34;;;9.50;82.72
3082;BME280;1551;51.046;7.010;2024-01-30T00:03:25;102094.69;;;9.44;82.73
3082;BME280;1551;51.046;7.010;2024-01-30T00:06:14;102087.84;;;9.43;82.73
3082;BME280;1551;51.046;7.010;2024-01-30T00:09:03;102085.28;;;9.43;82.27
3082;BME280;1551;51.046;7.010;2024-01-30T00:11:51;102078.50;;;9.44;82.79
3082;BME280;1551;51.046;7.010;2024-01-30T00:14:43;102087.03;;;9.44;83.03
3082;BME280;1551;51.046;7.010;2024-01-30T00:17:33;102072.50;;;9.43;82.94
3082;BME280;1551;51.046;7.010;2024-01-30T00:20:21;102074.25;;;9.44;82.56
3082;BME280;1551;51.046;7.010;2024-01-30T00:23:11;102073.38;;;9.44;83.16
3082;BME280;1551;51.046;7.010;2024-01-30T00:26:00;102073.38;;;9.44;83.03
3082;BME280;1551;51.046;7.010;2024-01-30T00:28:49;102078.50;;;9.45;82.48
3082;BME280;1551;51.046;7.010;2024-01-30T00:31:38;102072.53;;;9.45;83.35
3082;BME280;1551;51.046;7.010;2024-01-30T00:34:27;102069.97;;;9.45;83.06
3082;BME280;1551;51.046;7.010;2024-01-30T00:37:15;102070.81;;;9.44;82.54
3082;BME280;1551;51.046;7.010;2024-01-30T00:40:05;102058.78;;;9.38;83.18
3082;BME280;1551;51.046;7.010;2024-01-30T00:42:54;102069.94;;;9.42;82.51
3082;BME280;1551;51.046;7.010;2024-01-30T00:45:43;102066.53;;;9.43;82.46
3082;BME280;1551;51.046;7.010;2024-01-30T00:48:32;102067.31;;;9.37;82.32
3082;BME280;1551;51.046;7.010;2024-01-30T00:51:21;102068.19;;;9.39;82.72
3082;BME280;1551;51.046;7.010;2024-01-30T00:54:10;102075.00;;;9.39;83.27
3082;BME280;1551;51.046;7.010;2024-01-30T00:56:59;102057.91;;;9.35;83.01
3082;BME280;1551;51.046;7.010;2024-01-30T00:59:48;102068.13;;;9.35;83.39
3082;BME280;1551;51.046;7.010;2024-01-30T01:02:37;102065.56;;;9.35;82.55
3082;BME280;1551;51.046;7.010;2024-01-30T01:05:27;102055.34;;;9.35;82.91
3082;BME280;1551;51.046;7.010;2024-01-30T01:08:16;102062.13;;;9.34;82.47
3082;BME280;1551;51.046;7.010;2024-01-30T01:11:05;102062.13;;;9.33;82.90
3082;BME280;1551;51.046;7.010;2024-01-30T01:13:54;102068.91;;;9.32;82.72
3082;BME280;1551;51.046;7.010;2024-01-30T01:16:43;102071.50;;;9.34;82.89
3082;BME280;1551;51.046;7.010;2024-01-30T01:19:32;102074.84;;;9.30;83.38
3082;BME280;1551;51.046;7.010;2024-01-30T01:22:21;102070.59;;;9.30;83.02
3082;BME280;1551;51.046;7.010;2024-01-30T01:25:09;102072.28;;;9.31;82.96
3082;BME280;1551;51.046;7.010;2024-01-30T01:27:59;102062.88;;;9.27;82.41
3082;BME280;1551;51.046;7.010;2024-01-30T01:30:49;102066.31;;;9.31;82.72
3082;BME280;1551;51.046;7.010;2024-01-30T01:33:38;102067.25;;;9.34;82.89
3082;BME280;1551;51.046;7.010;2024-01-30T01:36:27;102066.38;;;9.32;82.13
3082;BME280;1551;51.046;7.010;2024-01-30T01:39:17;102062.94;;;9.30;83.10
3082;BME280;1551;51.046;7.010;2024-01-30T01:42:06;102073.19;;;9.33;82.99
3082;BME280;1551;51.046;7.010;2024-01-30T01:44:55;102068.13;;;9.35;82.53
3082;BME280;1551;51.046;7.010;2024-01-30T01:47:48;102061.34;;;9.37;82.13
3082;BME280;1551;51.046;7.010;2024-01-30T01:50:40;102071.56;;;9.37;82.23
3082;BME280;1551;51.046;7.010;2024-01-30T01:53:30;102062.22;;;9.39;82.65
3082;BME280;1551;51.046;7.010;2024-01-30T01:56:18;102057.94;;;9.38;82.54
3082;BME280;1551;51.046;7.010;2024-01-30T01:59:08;102058.75;;;9.35;81.59
3082;BME280;1551;51.046;7.010;2024-01-30T02:01:57;102054.50;;;9.36;82.75
3082;BME280;1551;51.046;7.010;2024-01-30T02:04:46;102051.06;;;9.34;82.01
3082;BME280;1551;51.046;7.010;2024-01-30T02:07:35;102051.91;;;9.34;82.41
3082;BME280;1551;51.046;7.010;2024-01-30T02:10:24;102053.66;;;9.35;82.24
3082;BME280;1551;51.046;7.010;2024-01-30T02:13:13;102049.38;;;9.36;82.54
3082;BME280;1551;51.046;7.010;2024-01-30T02:16:02;102054.53;;;9.39;82.29
3082;BME280;1551;51.046;7.010;2024-01-30T02:18:50;102046.88;;;9.37;83.02
3082;BME280;1551;51.046;7.010;2024-01-30T02:21:39;102049.44;;;9.39;82.25
3082;BME280;1551;51.046;7.010;2024-01-30T02:24:28;102039.22;;;9.39;82.20
3082;BME280;1551;51.046;7.010;2024-01-30T02:27:17;102048.56;;;9.38;82.58
3082;BME280;1551;51.046;7.010;2024-01-30T02:30:06;102050.31;;;9.41;82.81
3082;BME280;1551;51.046;7.010;2024-01-30T02:32:56;102041.78;;;9.39;81.88
3082;BME280;1551;51.046;7.010;2024-01-30T02:35:44;102045.16;;;9.38;81.82
3082;BME280;1551;51.046;7.010;2024-01-30T02:38:33;102040.91;;;9.37;82.45
3082;BME280;1551;51.046;7.010;2024-01-30T02:41:22;102040.03;;;9.38;81.80
3082;BME280;1551;51.046;7.010;2024-01-30T02:44:11;102037.47;;;9.38;82.78
3082;BME280;1551;51.046;7.010;2024-01-30T02:47:00;102030.66;;;9.37;82.40
3082;BME280;1551;51.046;7.010;2024-01-30T02:49:49;102030.72;;;9.40;82.94
3082;BME280;1551;51.046;7.010;2024-01-30T02:52:38;102032.38;;;9.38;82.80
3082;BME280;1551;51.046;7.010;2024-01-30T02:55:27;102032.34;;;9.35;82.27
3082;BME280;1551;51.046;7.010;2024-01-30T02:58:16;102028.06;;;9.34;82.56
3082;BME280;1551;51.046;7.010;2024-01-30T03:01:05;102028.03;;;9.32;81.66
3082;BME280;1551;51.046;7.010;2024-01-30T03:03:54;102025.50;;;9.34;82.17
3082;BME280;1551;51.046;7.010;2024-01-30T03:06:46;102016.97;;;9.33;83.10
3082;BME280;1551;51.046;7.010;2024-01-30T03:09:38;102018.69;;;9.33;82.31
3082;BME280;1551;51.046;7.010;2024-01-30T03:12:27;102012.78;;;9.35;81.98
3082;BME280;1551;51.046;7.010;2024-01-30T03:15:16;102017.00;;;9.35;82.53
3082;BME280;1551;51.046;7.010;2024-01-30T03:18:05;102016.16;;;9.36;82.48
3082;BME280;1551;51.046;7.010;2024-01-30T03:20:54;102013.59;;;9.36;82.76
3082;BME280;1551;51.046;7.010;2024-01-30T03:23:43;102011.94;;;9.38;82.35
3082;BME280;1551;51.046;7.010;2024-01-30T03:26:32;102009.38;;;9.36;82.93
3082;BME280;1551;51.046;7.010;2024-01-30T03:29:21;102012.84;;;9.40;82.98
3082;BME280;1551;51.046;7.010;2024-01-30T03:32:10;102006.88;;;9.39;82.98
3082;BME280;1551;51.046;7.010;2024-01-30T03:35:00;102004.31;;;9.41;82.11
3082;BME280;1551;51.046;7.010;2024-01-30T03:37:48;102004.38;;;9.44;82.61
3082;BME280;1551;51.046;7.010;2024-01-30T03:40:38;102002.66;;;9.43;82.61
3082;BME280;1551;51.046;7.010;2024-01-30T03:43:26;101998.41;;;9.43;82.66
3082;BME280;1551;51.046;7.010;2024-01-30T03:46:15;101999.28;;;9.44;82.92
3082;BME280;1551;51.046;7.010;2024-01-30T03:49:04;101995.03;;;9.44;83.28
3082;BME280;1551;51.046;7.010;2024-01-30T03:51:53;101995.88;;;9.45;82.38
3082;BME280;1551;51.046;7.010;2024-01-30T03:54:42;101997.59;;;9.47;83.57
3082;BME280;1551;51.046;7.010;2024-01-30T03:57:31;101997.66;;;9.49;82.60
3082;BME280;1551;51.046;7.010;2024-01-30T04:00:20;101991.69;;;9.50;83.41
3082;BME280;1551;51.046;7.010;2024-01-30T04:03:09;101995.97;;;9.52;82.73
3082;BME280;1551;51.046;7.010;2024-01-30T04:05:58;101997.72;;;9.53;83.01
3082;BME280;1551;51.046;7.010;2024-01-30T04:08:47;101993.47;;;9.54;83.27
3082;BME280;1551;51.046;7.010;2024-01-30T04:11:36;101989.19;;;9.51;83.04
3082;BME280;1551;51.046;7.010;2024-01-30T04:14:25;101990.06;;;9.55;82.87
3082;BME280;1551;51.046;7.010;2024-01-30T04:17:14;101993.50;;;9.57;82.46
3082;BME280;1551;51.046;7.010;2024-01-30T04:20:03;101994.34;;;9.56;82.77
3082;BME280;1551;51.046;7.010;2024-01-30T04:22:52;101982.38;;;9.53;82.17
3082;BME280;1551;51.046;7.010;2024-01-30T04:25:41;101988.31;;;9.51;83.22
3082;BME280;1551;51.046;7.010;2024-01-30T04:28:30;101988.31;;;9.51;82.66
3082;BME280;1551;51.046;7.010;2024-01-30T04:31:19;101987.44;;;9.50;83.25
3082;BME280;1551;51.046;7.010;2024-01-30T04:34:08;101982.31;;;9.49;83.52
3082;BME280;1551;51.046;7.010;2024-01-30T04:36:57;101980.63;;;9.49;83.10
3082;BME280;1551;51.046;7.010;2024-01-30T04:39:46;101981.44;;;9.48;83.20
3082;BME280;1551;51.046;7.010;2024-01-30T04:42:35;101984.88;;;9.49;83.19
3082;BME280;1551;51.046;7.010;2024-01-30T04:45:24;101984.00;;;9.47;83.35
3082;BME280;1551;51.046;7.010;2024-01-30T04:48:13;101995.03;;;9.44;83.36
3082;BME280;1551;51.046;7.010;2024-01-30T04:51:02;101985.63;;;9.45;83.21
3082;BME280;1551;51.046;7.010;2024-01-30T04:53:52;101989.91;;;9.44;83.73
3082;BME280;1551;51.046;7.010;2024-01-30T04:56:41;101989.88;;;9.43;83.19
3082;BME280;1551;51.046;7.010;2024-01-30T04:59:30;101982.13;;;9.37;83.36
3082;BME280;1551;51.046;7.010;2024-01-30T05:02:19;101991.50;;;9.38;83.48
3082;BME280;1551;51.046;7.010;2024-01-30T05:05:08;101983.81;;;9.36;83.93
3082;BME280;1551;51.046;7.010;2024-01-30T05:07:57;101985.47;;;9.33;83.19
3082;BME280;1551;51.046;7.010;2024-01-30T05:10:46;101987.13;;;9.31;83.73
3082;BME280;1551;51.046;7.010;2024-01-30T05:13:35;101987.06;;;9.26;83.46
3082;BME280;1551;51.046;7.010;2024-01-30T05:16:24;101984.41;;;9.22;84.23
3082;BME280;1551;51.046;7.010;2024-01-30T05:19:13;101988.69;;;9.21;83.64
3082;BME280;1551;51.046;7.010;2024-01-30T05:22:03;101986.97;;;9.20;84.28
3082;BME280;1551;51.046;7.010;2024-01-30T05:24:52;101983.47;;;9.15;84.17
3082;BME280;1551;51.046;7.010;2024-01-30T05:27:41;101985.19;;;9.16;83.86
3082;BME280;1551;51.046;7.010;2024-01-30T05:30:30;101977.50;;;9.15;84.59
3082;BME280;1551;51.046;7.010;2024-01-30T05:33:19;101980.84;;;9.12;84.59
3082;BME280;1551;51.046;7.010;2024-01-30T05:36:08;101975.72;;;9.11;84.72
3082;BME280;1551;51.046;7.010;2024-01-30T05:38:56;101979.09;;;9.07;84.69
3082;BME280;1551;51.046;7.010;2024-01-30T05:41:46;101973.94;;;9.05;84.84
3082;BME280;1551;51.046;7.010;2024-01-30T05:44:35;101980.78;;;9.06;85.04
3082;BME280;1551;51.046;7.010;2024-01-30T05:47:24;101973.09;;;9.05;84.82
3082;BME280;1551;51.046;7.010;2024-01-30T05:50:13;101968.88;;;9.07;85.20
3082;BME280;1551;51.046;7.010;2024-01-30T05:53:02;101965.38;;;9.02;84.47
3082;BME280;1551;51.046;7.010;2024-01-30T05:55:51;101955.97;;;8.99;85.37
3082;BME280;1551;51.046;7.010;2024-01-30T05:58:40;101968.72;;;8.99;84.75
3082;BME280;1551;51.046;7.010;2024-01-30T06:01:29;101972.94;;;8.95;84.78
3082;BME280;1551;51.046;7.010;2024-01-30T06:04:18;101967.84;;;8.95;85.22
3082;BME280;1551;51.046;7.010;2024-01-30T06:07:07;101970.38;;;8.95;85.29
3082;BME280;1551;51.046;7.010;2024-01-30T06:09:57;101973.81;;;8.97;85.16
3082;BME280;1551;51.046;7.010;2024-01-30T06:12:46;101969.59;;;8.99;86.05
3082;BME280;1551;51.046;7.010;2024-01-30T06:15:35;101968.75;;;9.00;85.29
3082;BME280;1551;51.046;7.010;2024-01-30T06:18:24;101965.38;;;9.02;85.55
3082;BME280;1551;51.046;7.010;2024-01-30T06:21:13;101971.34;;;9.02;85.34
3082;BME280;1551;51.046;7.010;2024-01-30T06:24:02;101970.50;;;9.03;85.40
3082;BME280;1551;51.046;7.010;2024-01-30T06:26:51;101970.53;;;9.05;85.41
3082;BME280;1551;51.046;7.010;2024-01-30T06:29:42;101969.72;;;9.07;85.57
3082;BME280;1551;51.046;7.010;2024-01-30T06:32:31;101956.19;;;9.13;85.42
3082;BME280;1551;51.046;7.010;2024-01-30T06:35:23;101958.78;;;9.16;86.21
3082;BME280;1551;51.046;7.010;2024-01-30T06:38:12;101962.25;;;9.19;85.34
3082;BME280;1551;51.046;7.010;2024-01-30T06:41:02;101955.50;;;9.23;85.53
3082;BME280;1551;51.046;7.010;2024-01-30T06:43:52;101963.22;;;9.26;85.50
3082;BME280;1551;51.046;7.010;2024-01-30T06:46:41;101954.75;;;9.28;85.87
3082;BME280;1551;51.046;7.010;2024-01-30T06:49:30;101957.38;;;9.33;84.92
3082;BME280;1551;51.046;7.010;2024-01-30T06:52:19;101951.47;;;9.37;85.99
3082;BME280;1551;51.046;7.010;2024-01-30T06:55:08;101948.06;;;9.38;84.58
3082;BME280;1551;51.046;7.010;2024-01-30T06:57:57;101952.41;;;9.45;85.72
3082;BME280;1551;51.046;7.010;2024-01-30T07:00:46;101953.34;;;9.47;84.83
3082;BME280;1551;51.046;7.010;2024-01-30T07:03:35;101956.78;;;9.50;84.88
3082;BME280;1551;51.046;7.010;2024-01-30T07:06:24;101952.53;;;9.51;84.83
3082;BME280;1551;51.046;7.010;2024-01-30T07:09:13;101958.50;;;9.53;84.90
3082;BME280;1551;51.046;7.010;2024-01-30T07:12:02;101955.13;;;9.54;85.13
3082;BME280;1551;51.046;7.010;2024-01-30T07:14:52;101961.13;;;9.57;84.34
3082;BME280;1551;51.046;7.010;2024-01-30T07:17:40;101966.25;;;9.59;85.06
3082;BME280;1551;51.046;7.010;2024-01-30T07:20:30;101963.69;;;9.56;84.09
3082;BME280;1551;51.046;7.010;2024-01-30T07:23:20;101973.97;;;9.60;84.53
3082;BME280;1551;51.046;7.010;2024-01-30T07:26:09;101977.41;;;9.64;84.68
3082;BME280;1551;51.046;7.010;2024-01-30T07:28:58;101981.69;;;9.65;83.99
3082;BME280;1551;51.046;7.010;2024-01-30T07:31:47;101980.88;;;9.67;84.47
3082;BME280;1551;51.046;7.010;2024-01-30T07:34:37;101986.88;;;9.71;84.44
3082;BME280;1551;51.046;7.010;2024-01-30T07:37:26;101987.75;;;9.73;84.65
3082;BME280;1551;51.046;7.010;2024-01-30T07:40:15;101992.09;;;9.77;84.78
3082;BME280;1551;51.046;7.010;2024-01-30T07:43:04;101994.72;;;9.83;84.43
3082;BME280;1551;51.046;7.010;2024-01-30T07:45:52;101999.91;;;9.88;83.57
3082;BME280;1551;51.046;7.010;2024-01-30T07:48:42;102006.81;;;9.93;83.44
3082;BME280;1551;51.046;7.010;2024-01-30T07:51:31;102001.75;;;9.96;83.08
3082;BME280;1551;51.046;7.010;2024-01-30T07:54:21;102000.09;;;10.01;82.86
3082;BME280;1551;51.046;7.010;2024-01-30T07:57:11;101999.28;;;10.04;83.32
3082;BME280;1551;51.046;7.010;2024-01-30T08:00:01;101997.59;;;10.04;82.96
3082;BME280;1551;51.046;7.010;2024-01-30T08:02:56;102007.00;;;10.08;83.11
3082;BME280;1551;51.046;7.010;2024-01-30T08:05:45;102011.28;;;10.09;82.78
3082;BME280;1551;51.046;7.010;2024-01-30T08:08:34;102012.19;;;10.11;82.88
3082;BME280;1551;51.046;7.010;2024-01-30T08:11:23;102012.31;;;10.19;82.16
3082;BME280;1551;51.046;7.010;2024-01-30T08:14:14;102014.91;;;10.23;82.94
3082;BME280;1551;51.046;7.010;2024-01-30T08:17:03;102009.00;;;10.27;81.96
3082;BME280;1551;51.046;7.010;2024-01-30T08:19:52;102011.59;;;10.32;82.45
3082;BME280;1551;51.046;7.010;2024-01-30T08:22:41;102011.69;;;10.38;82.01
3082;BME280;1551;51.046;7.010;2024-01-30T08:25:30;102003.19;;;10.41;81.36
3082;BME280;1551;51.046;7.010;2024-01-30T08:28:19;102001.53;;;10.44;82.03
3082;BME280;1551;51.046;7.010;2024-01-30T08:31:10;101999.81;;;10.45;81.67
3082;BME280;1551;51.046;7.010;2024-01-30T08:34:00;101997.31;;;10.48;81.40
3082;BME280;1551;51.046;7.010;2024-01-30T08:36:49;101990.47;;;10.48;81.85
3082;BME280;1551;51.046;7.010;2024-01-30T08:39:38;101992.19;;;10.49;81.09
3082;BME280;1551;51.046;7.010;2024-01-30T08:42:26;102004.22;;;10.58;81.03
3082;BME280;1551;51.046;7.010;2024-01-30T08:45:15;102007.75;;;10.64;81.04
3082;BME280;1551;51.046;7.010;2024-01-30T08:48:05;102006.97;;;10.73;80.58
3082;BME280;1551;51.046;7.010;2024-01-30T08:50:54;102024.16;;;10.83;80.50
3082;BME280;1551;51.046;7.010;2024-01-30T08:53:43;102025.91;;;10.88;79.70
3082;BME280;1551;51.046;7.010;2024-01-30T08:56:32;102029.41;;;10.99;79.59
3082;BME280;1551;51.046;7.010;2024-01-30T08:59:21;102033.75;;;11.06;78.91
3082;BME280;1551;51.046;7.010;2024-01-30T09:02:10;102032.13;;;11.16;78.74
3082;BME280;1551;51.046;7.010;2024-01-30T09:05:01;102025.38;;;11.24;78.54
3082;BME280;1551;51.046;7.010;2024-01-30T09:07:51;102032.31;;;11.37;78.31
3082;BME280;1551;51.046;7.010;2024-01-30T09:10:40;102028.13;;;11.44;77.86
3082;BME280;1551;51.046;7.010;2024-01-30T09:13:29;102045.38;;;11.66;77.43
3082;BME280;1551;51.046;7.010;2024-01-30T09:16:18;102035.97;;;11.65;76.85
3082;BME280;1551;51.046;7.010;2024-01-30T09:19:07;102046.34;;;11.80;76.57
3082;BME280;1551;51.046;7.010;2024-01-30T09:21:57;102030.22;;;11.99;75.89
3082;BME280;1551;51.046;7.010;2024-01-30T09:24:46;102043.22;;;12.29;75.16
3082;BME280;1551;51.046;7.010;2024-01-30T09:27:35;102058.78;;;12.67;74.05
3082;BME280;1551;51.046;7.010;2024-01-30T09:30:24;102050.28;;;12.88;72.38
3082;BME280;1551;51.046;7.010;2024-01-30T09:33:13;102062.22;;;12.69;72.23
3082;BME280;1551;51.046;7.010;2024-01-30T09:36:02;102063.91;;;12.69;72.18
3082;BME280;1551;51.046;7.010;2024-01-30T09:38:50;102071.56;;;12.52;72.09
3082;BME280;1551;51.046;7.010;2024-01-30T09:41:52;102069.03;;;12.58;72.50
3082;BME280;1551;51.046;7.010;2024-01-30T09:44:45;102059.59;;;12.51;72.54
3082;BME280;1551;51.046;7.010;2024-01-30T09:47:43;102070.72;;;12.58;72.01
3082;BME280;1551;51.046;7.010;2024-01-30T09:50:34;102071.56;;;12.55;72.08
3082;BME280;1551;51.046;7.010;2024-01-30T09:53:25;102067.34;;;12.63;72.17
3082;BME280;1551;51.046;7.010;2024-01-30T09:56:14;102062.22;;;12.69;71.39
3082;BME280;1551;51.046;7.010;2024-01-30T09:59:03;102076.03;;;13.06;70.79
3082;BME280;1551;51.046;7.010;2024-01-30T10:01:52;102064.84;;;12.99;70.21
3082;BME280;1551;51.046;7.010;2024-01-30T10:04:41;102081.13;;;12.89;70.31
3082;BME280;1551;51.046;7.010;2024-01-30T10:07:31;102083.78;;;13.30;69.98
3082;BME280;1551;51.046;7.010;2024-01-30T10:10:22;102079.19;;;14.86;66.27
3082;BME280;1551;51.046;7.010;2024-01-30T10:13:11;102085.34;;;14.54;64.38
3082;BME280;1551;51.046;7.010;2024-01-30T10:16:00;102085.44;;;14.29;64.83
3082;BME280;1551;51.046;7.010;2024-01-30T10:18:52;102084.56;;;14.36;65.43
3082;BME280;1551;51.046;7.010;2024-01-30T10:21:41;102076.00;;;14.33;64.28
3082;BME280;1551;51.046;7.010;2024-01-30T10:24:30;102070.81;;;14.25;65.13
3082;BME280;1551;51.046;7.010;2024-01-30T10:27:25;102086.72;;;15.21;63.65
3082;BME280;1551;51.046;7.010;2024-01-30T10:30:15;102081.97;;;15.80;60.06
3082;BME280;1551;51.046;7.010;2024-01-30T10:33:04;102092.16;;;14.73;61.33
3082;BME280;1551;51.046;7.010;2024-01-30T10:35:58;102082.88;;;14.07;63.76
3082;BME280;1551;51.046;7.010;2024-01-30T10:38:50;102068.38;;;13.54;65.18
3082;BME280;1551;51.046;7.010;2024-01-30T10:41:43;102069.22;;;13.28;66.75
3082;BME280;1551;51.046;7.010;2024-01-30T10:47:54;102070.09;;;13.22;67.91
3082;BME280;1551;51.046;7.010;2024-01-30T10:50:46;102071.78;;;13.32;68.42
3082;BME280;1551;51.046;7.010;2024-01-30T10:53:36;102071.81;;;13.43;67.87
3082;BME280;1551;51.046;7.010;2024-01-30T10:56:25;102067.53;;;13.66;67.56
3082;BME280;1551;51.046;7.010;2024-01-30T10:59:14;102070.97;;;13.62;67.33
3082;BME280;1551;51.046;7.010;2024-01-30T11:02:05;102070.09;;;13.52;67.64
3082;BME280;1551;51.046;7.010;2024-01-30T11:04:59;102060.66;;;13.50;68.21
3082;BME280;1551;51.046;7.010;2024-01-30T11:07:48;102053.78;;;13.44;67.66
3082;BME280;1551;51.046;7.010;2024-01-30T11:10:46;102053.81;;;13.50;68.30
3082;BME280;1551;51.046;7.010;2024-01-30T11:13:35;102057.22;;;13.49;68.27
3082;BME280;1551;51.046;7.010;2024-01-30T11:16:31;102052.09;;;13.37;68.62
3082;BME280;1551;51.046;7.010;2024-01-30T11:19:27;102070.09;;;13.61;68.49
3082;BME280;1551;51.046;7.010;2024-01-30T11:22:20;102069.22;;;13.79;67.82
3082;BME280;1551;51.046;7.010;2024-01-30T11:25:17;102078.66;;;13.80;67.90
3082;BME280;1551;51.046;7.010;2024-01-30T11:28:13;102072.63;;;13.92;67.89
3082;BME280;1551;51.046;7.010;2024-01-30T11:31:06;102064.88;;;14.13;67.20
3082;BME280;1551;51.046;7.010;2024-01-30T11:33:56;102069.13;;;14.24;67.16
3082;BME280;1551;51.046;7.010;2024-01-30T11:36:50;102059.63;;;14.51;65.58
3082;BME280;1551;51.046;7.010;2024-01-30T11:39:42;102067.25;;;14.69;64.85
3082;BME280;1551;51.046;7.010;2024-01-30T11:42:32;102052.69;;;14.65;64.89
3082;BME280;1551;51.046;7.010;2024-01-30T11:45:21;102063.72;;;14.88;64.31
3082;BME280;1551;51.046;7.010;2024-01-30T11:48:14;102059.34;;;14.99;64.00
3082;BME280;1551;51.046;7.010;2024-01-30T11:51:03;102053.38;;;14.94;64.22
3082;BME280;1551;51.046;7.010;2024-01-30T11:53:53;102064.63;;;14.84;64.26
3082;BME280;1551;51.046;7.010;2024-01-30T11:56:42;102061.00;;;15.07;64.01
3082;BME280;1551;51.046;7.010;2024-01-30T11:59:34;102066.25;;;14.97;63.14
3082;BME280;1551;51.046;7.010;2024-01-30T12:02:23;102063.78;;;14.79;63.72
3082;BME280;1551;51.046;7.010;2024-01-30T12:05:12;102072.38;;;14.73;63.94
3082;BME280;1551;51.046;7.010;2024-01-30T12:08:01;102039.00;;;14.52;64.63
3082;BME280;1551;51.046;7.010;2024-01-30T12:10:57;102048.44;;;14.50;64.53
3082;BME280;1551;51.046;7.010;2024-01-30T12:13:54;102062.16;;;14.58;64.80
3082;BME280;1551;51.046;7.010;2024-01-30T12:16:43;102072.50;;;14.44;64.64
3082;BME280;1551;51.046;7.010;2024-01-30T12:19:32;102069.13;;;14.30;65.61
3082;BME280;1551;51.046;7.010;2024-01-30T12:22:20;102073.41;;;14.37;66.26
3082;BME280;1551;51.046;7.010;2024-01-30T12:25:12;102068.22;;;14.42;65.71
3082;BME280;1551;51.046;7.010;2024-01-30T12:28:02;102078.53;;;14.42;66.16
3082;BME280;1551;51.046;7.010;2024-01-30T12:30:56;102075.94;;;14.53;66.66
3082;BME280;1551;51.046;7.010;2024-01-30T12:33:49;102058.63;;;14.76;66.03
3082;BME280;1551;51.046;7.010;2024-01-30T12:36:38;102065.38;;;15.02;65.79
3082;BME280;1551;51.046;7.010;2024-01-30T12:39:27;102066.75;;;15.49;64.69
3082;BME280;1551;51.046;7.010;2024-01-30T12:42:17;102065.09;;;15.40;63.27
3082;BME280;1551;51.046;7.010;2024-01-30T12:45:07;102073.75;;;15.29;62.88
3082;BME280;1551;51.046;7.010;2024-01-30T12:47:56;102062.72;;;15.10;63.43
3082;BME280;1551;51.046;7.010;2024-01-30T12:50:46;102068.75;;;15.09;64.08
3082;BME280;1551;51.046;7.010;2024-01-30T12:53:35;102074.78;;;15.03;63.82
3082;BME280;1551;51.046;7.010;2024-01-30T12:56:24;102077.44;;;14.93;63.97
3082;BME280;1551;51.046;7.010;2024-01-30T12:59:13;102067.16;;;14.85;63.87
3082;BME280;1551;51.046;7.010;2024-01-30T13:02:03;102079.22;;;14.82;64.32
3082;BME280;1551;51.046;7.010;2024-01-30T13:04:52;102081.78;;;14.82;64.18
3082;BME280;1551;51.046;7.010;2024-01-30T13:07:40;102082.66;;;14.82;65.12
3082;BME280;1551;51.046;7.010;2024-01-30T13:10:29;102077.53;;;14.73;65.02
3082;BME280;1551;51.046;7.010;2024-01-30T13:13:18;102083.59;;;14.66;64.88
3082;BME280;1551;51.046;7.010;2024-01-30T13:16:07;102086.16;;;14.63;65.16
3082;BME280;1551;51.046;7.010;2024-01-30T13:18:57;102090.56;;;14.46;66.22
3082;BME280;1551;51.046;7.010;2024-01-30T13:21:46;102089.72;;;14.41;66.75
3082;BME280;1551;51.046;7.010;2024-01-30T13:24:36;102098.28;;;14.44;66.49
3082;BME280;1551;51.046;7.010;2024-01-30T13:27:25;102088.88;;;14.31;66.87
3082;BME280;1551;51.046;7.010;2024-01-30T13:30:14;102092.28;;;14.26;67.72
3082;BME280;1551;51.046;7.010;2024-01-30T13:33:03;102088.91;;;14.13;68.45
3082;BME280;1551;51.046;7.010;2024-01-30T13:35:53;102100.94;;;14.05;68.90
3082;BME280;1551;51.046;7.010;2024-01-30T13:38:42;102103.53;;;13.99;69.35
3082;BME280;1551;51.046;7.010;2024-01-30T13:41:31;102100.09;;;14.02;70.05
3082;BME280;1551;51.046;7.010;2024-01-30T13:44:20;102105.19;;;14.09;70.54
3082;BME280;1551;51.046;7.010;2024-01-30T13:47:10;102104.34;;;14.07;70.48
3082;BME280;1551;51.046;7.010;2024-01-30T13:49:59;102104.34;;;14.00;70.81
3082;BME280;1551;51.046;7.010;2024-01-30T13:52:48;102112.97;;;13.97;71.62
3082;BME280;1551;51.046;7.010;2024-01-30T13:55:37;102106.94;;;13.94;72.20
3082;BME280;1551;51.046;7.010;2024-01-30T13:58:27;102108.66;;;13.93;72.77
3082;BME280;1551;51.046;7.010;2024-01-30T14:01:16;102108.66;;;13.89;73.18
3082;BME280;1551;51.046;7.010;2024-01-30T14:04:05;102121.53;;;13.92;73.87
3082;BME280;1551;51.046;7.010;2024-01-30T14:06:54;102103.53;;;13.83;73.76
3082;BME280;1551;51.046;7.010;2024-01-30T14:09:43;102110.41;;;13.90;74.72
3082;BME280;1551;51.046;7.010;2024-01-30T14:12:32;102112.94;;;13.84;74.62
3082;BME280;1551;51.046;7.010;2024-01-30T14:15:21;102115.56;;;13.85;74.71
3082;BME280;1551;51.046;7.010;2024-01-30T14:18:10;102106.97;;;13.85;74.67
3082;BME280;1551;51.046;7.010;2024-01-30T14:20:59;102107.81;;;13.87;74.97
3082;BME280;1551;51.046;7.010;2024-01-30T14:23:48;102112.13;;;13.85;75.00
3082;BME280;1551;51.046;7.010;2024-01-30T14:26:38;102116.38;;;13.89;75.31
3082;BME280;1551;51.046;7.010;2024-01-30T14:29:27;102103.53;;;13.87;75.24
3082;BME280;1551;51.046;7.010;2024-01-30T14:32:16;102110.38;;;13.88;75.37
3082;BME280;1551;51.046;7.010;2024-01-30T14:35:05;102103.50;;;13.86;75.57
3082;BME280;1551;51.046;7.010;2024-01-30T14:37:54;102106.97;;;13.92;75.36
3082;BME280;1551;51.046;7.010;2024-01-30T14:40:43;102107.81;;;14.02;75.44
3082;BME280;1551;51.046;7.010;2024-01-30T14:43:32;102116.34;;;14.07;74.95
3082;BME280;1551;51.046;7.010;2024-01-30T14:46:21;102113.78;;;14.10;75.18
3082;BME280;1551;51.046;7.010;2024-01-30T14:49:10;102115.50;;;14.15;74.55
3082;BME280;1551;51.046;7.010;2024-01-30T14:51:59;102113.78;;;14.16;74.52
3082;BME280;1551;51.046;7.010;2024-01-30T14:54:49;102115.50;;;14.05;74.94
3082;BME280;1551;51.046;7.010;2024-01-30T14:57:38;102100.97;;;13.87;75.29
3082;BME280;1551;51.046;7.010;2024-01-30T15:00:27;102114.69;;;13.88;75.60
3082;BME280;1551;51.046;7.010;2024-01-30T15:03:16;102123.25;;;13.91;75.33
3082;BME280;1551;51.046;7.010;2024-01-30T15:06:06;102118.09;;;13.84;75.50
3082;BME280;1551;51.046;7.010;2024-01-30T15:08:55;102125.00;;;13.83;75.77
3082;BME280;1551;51.046;7.010;2024-01-30T15:11:44;102133.56;;;13.81;75.97
3082;BME280;1551;51.046;7.010;2024-01-30T15:14:33;102126.69;;;13.86;75.91
3082;BME280;1551;51.046;7.010;2024-01-30T15:17:22;102133.56;;;13.85;75.71
3082;BME280;1551;51.046;7.010;2024-01-30T15:20:11;102124.97;;;13.86;75.85